createdAt,value
2022-12-28T00:02:19.140Z,100356.34
2022-12-28T00:04:47.104Z,100350.72
2022-12-28T00:07:14.327Z,100355.09
2022-12-28T00:09:41.568Z,100354.19
2022-12-28T00:12:09.035Z,100359.56
2022-12-28T00:14:36.328Z,100360.31
2022-12-28T00:17:03.504Z,100357.25
2022-12-28T00:19:30.887Z,100368.50
2022-12-28T00:21:58.042Z,100360.06
2022-12-28T00:24:25.425Z,100367.88
2022-12-28T00:26:53.024Z,100361.66
2022-12-28T00:29:20.245Z,100359.19
2022-12-28T00:31:47.465Z,100360.00
2022-12-28T00:34:15.040Z,100355.28
2022-12-28T00:37:09.633Z,100357.25
2022-12-28T00:39:29.753Z,100359.19
2022-12-28T00:41:56.949Z,100357.31
2022-12-28T00:44:24.105Z,100360.16
2022-12-28T00:46:51.553Z,100359.75
2022-12-28T00:49:18.729Z,100362.41
2022-12-28T00:51:46.168Z,100363.72
2022-12-28T00:54:13.868Z,100364.84
2022-12-28T00:56:43.002Z,100372.91
2022-12-28T00:59:10.267Z,100376.06
2022-12-28T01:01:37.886Z,100374.53
2022-12-28T01:04:05.262Z,100382.31
2022-12-28T01:06:32.438Z,100381.72
2022-12-28T01:09:00.024Z,100388.50
2022-12-28T01:11:28.363Z,100392.34
2022-12-28T01:13:56.704Z,100388.66
2022-12-28T01:16:25.397Z,100385.97
2022-12-28T01:18:53.630Z,100389.44
2022-12-28T01:21:22.032Z,100391.53
2022-12-28T01:23:49.675Z,100391.25
2022-12-28T01:26:16.873Z,100393.69
2022-12-28T01:28:45.289Z,100390.09
2022-12-28T01:31:13.712Z,100390.00
2022-12-28T01:33:41.231Z,100397.94
2022-12-28T01:36:08.972Z,100396.09
2022-12-28T01:38:37.931Z,100393.03
2022-12-28T01:41:12.251Z,100391.38
2022-12-28T01:43:41.171Z,100392.19
2022-12-28T01:46:13.307Z,100384.91
2022-12-28T01:48:43.029Z,100386.84
2022-12-28T01:51:10.196Z,100373.88
2022-12-28T01:53:37.351Z,100375.69
2022-12-28T01:56:04.918Z,100373.53
2022-12-28T01:58:32.087Z,100371.53
2022-12-28T02:00:59.400Z,100366.84
2022-12-28T02:03:27.765Z,100356.75
2022-12-28T02:05:56.571Z,100356.41
2022-12-28T02:08:32.553Z,100353.47
2022-12-28T02:11:00.284Z,100358.00
2022-12-28T02:13:27.473Z,100360.94
2022-12-28T02:15:57.749Z,100359.09
2022-12-28T02:18:25.485Z,100354.09
2022-12-28T02:21:14.851Z,100341.66
2022-12-28T02:24:05.196Z,100350.59
2022-12-28T02:26:32.342Z,100347.00
2022-12-28T02:29:08.803Z,100347.41
2022-12-28T02:31:43.676Z,100352.22
2022-12-28T02:34:22.002Z,100357.44
2022-12-28T02:36:55.965Z,100353.03
2022-12-28T02:39:27.416Z,100351.06
2022-12-28T02:41:54.599Z,100352.81
2022-12-28T02:44:40.545Z,100356.16
2022-12-28T02:47:29.772Z,100352.31
2022-12-28T02:50:09.159Z,100353.34
2022-12-28T02:52:36.618Z,100355.72
2022-12-28T02:55:31.555Z,100352.56
2022-12-28T02:58:12.019Z,100351.59
2022-12-28T03:00:58.041Z,100350.09
2022-12-28T03:03:39.199Z,100345.13
2022-12-28T03:06:42.448Z,100350.31
2022-12-28T03:09:28.601Z,100356.06
2022-12-28T03:12:00.860Z,100350.50
2022-12-28T03:14:29.438Z,100340.59
2022-12-28T03:17:16.525Z,100339.81
2022-12-28T03:20:06.077Z,100329.84
2022-12-28T03:22:52.548Z,100324.09
2022-12-28T03:25:40.326Z,100325.44
2022-12-28T03:28:27.714Z,100323.41
2022-12-28T03:31:06.546Z,100327.66
2022-12-28T03:34:07.326Z,100332.34
2022-12-28T03:36:35.184Z,100329.09
2022-12-28T03:39:08.724Z,100322.16
2022-12-28T03:41:36.389Z,100319.53
2022-12-28T03:44:07.949Z,100313.94
2022-12-28T03:46:44.169Z,100311.69
2022-12-28T03:49:11.407Z,100312.50
2022-12-28T03:51:39.717Z,100314.47
2022-12-28T03:54:08.070Z,100314.91
2022-12-28T03:56:35.777Z,100307.47
2022-12-28T03:59:04.222Z,100294.94
2022-12-28T04:01:32.329Z,100295.53
2022-12-28T04:04:00.055Z,100286.25
2022-12-28T04:06:27.312Z,100280.75
2022-12-28T04:08:54.573Z,100289.44
2022-12-28T04:11:26.402Z,100281.13
2022-12-28T04:13:53.708Z,100281.47
2022-12-28T04:16:21.462Z,100280.09
2022-12-28T04:18:49.240Z,100279.00
2022-12-28T04:21:16.658Z,100270.28
2022-12-28T04:23:44.061Z,100267.81
2022-12-28T04:26:12.566Z,100277.81
2022-12-28T04:28:40.582Z,100271.53
2022-12-28T04:31:11.984Z,100271.69
2022-12-28T04:33:41.065Z,100264.72
2022-12-28T04:36:12.486Z,100262.16
2022-12-28T04:38:40.119Z,100269.31
2022-12-28T04:41:07.746Z,100265.81
2022-12-28T04:43:35.200Z,100254.81
2022-12-28T04:46:04.266Z,100264.25
2022-12-28T04:48:31.535Z,100265.09
2022-12-28T04:50:58.689Z,100269.56
2022-12-28T04:53:26.143Z,100267.50
2022-12-28T04:55:53.954Z,100268.09
2022-12-28T04:58:21.117Z,100280.16
2022-12-28T05:00:48.594Z,100276.75
2022-12-28T05:03:17.370Z,100284.53
2022-12-28T05:05:44.655Z,100277.03
2022-12-28T05:08:12.077Z,100280.34
2022-12-28T05:10:39.257Z,100277.94
2022-12-28T05:13:06.436Z,100272.47
2022-12-28T05:15:33.943Z,100270.59
2022-12-28T05:18:01.103Z,100274.34
2022-12-28T05:20:28.348Z,100274.13
2022-12-28T05:22:55.795Z,100276.50
2022-12-28T05:25:23.030Z,100279.50
2022-12-28T05:27:50.204Z,100277.06
2022-12-28T05:30:17.720Z,100282.09
2022-12-28T05:32:44.915Z,100289.25
2022-12-28T05:35:12.075Z,100283.59
2022-12-28T05:37:39.508Z,100274.91
2022-12-28T05:40:06.914Z,100272.25
2022-12-28T05:42:35.137Z,100269.44
2022-12-28T05:45:02.586Z,100280.34
2022-12-28T05:47:29.863Z,100278.88
2022-12-28T05:49:57.014Z,100266.94
2022-12-28T05:52:24.455Z,100284.56
2022-12-28T05:54:51.605Z,100268.00
2022-12-28T05:57:18.818Z,100268.50
2022-12-28T05:59:46.263Z,100277.22
2022-12-28T06:02:13.647Z,100280.59
2022-12-28T06:04:41.314Z,100290.22
2022-12-28T06:07:08.461Z,100280.97
2022-12-28T06:09:35.699Z,100275.06
2022-12-28T06:12:04.809Z,100277.50
2022-12-28T06:14:32.029Z,100275.31
2022-12-28T06:16:59.218Z,100279.28
2022-12-28T06:19:26.784Z,100277.53
2022-12-28T06:21:54.485Z,100274.31
2022-12-28T06:24:21.646Z,100280.28
2022-12-28T06:26:51.244Z,100281.25
2022-12-28T06:29:18.512Z,100280.53
2022-12-28T06:31:51.230Z,100268.88
2022-12-28T06:34:18.772Z,100280.16
2022-12-28T06:36:46.283Z,100278.56
2022-12-28T06:39:14.002Z,100285.44
2022-12-28T06:41:41.810Z,100281.84
2022-12-28T06:44:09.754Z,100294.37
2022-12-28T06:46:36.947Z,100289.13
2022-12-28T06:49:04.426Z,100286.00
2022-12-28T06:51:32.954Z,100291.41
2022-12-28T06:54:00.205Z,100287.56
2022-12-28T06:56:31.578Z,100290.94
2022-12-28T06:59:03.191Z,100288.50
2022-12-28T07:01:35.187Z,100298.66
2022-12-28T07:04:03.301Z,100292.97
2022-12-28T07:06:30.690Z,100285.91
2022-12-28T07:08:59.737Z,100291.44
2022-12-28T07:11:27.038Z,100287.28
2022-12-28T07:13:54.231Z,100285.84
2022-12-28T07:16:22.465Z,100299.09
2022-12-28T07:18:49.896Z,100288.19
2022-12-28T07:21:18.349Z,100291.69
2022-12-28T07:23:47.463Z,100287.66
2022-12-28T07:26:15.745Z,100290.16
2022-12-28T07:28:44.083Z,100276.19
2022-12-28T07:31:12.970Z,100277.16
2022-12-28T07:33:41.191Z,100276.69
2022-12-28T07:36:09.733Z,100276.81
2022-12-28T07:38:37.253Z,100282.56
2022-12-28T07:41:08.682Z,100270.78
2022-12-28T07:43:35.868Z,100271.50
2022-12-28T07:46:04.283Z,100276.41
2022-12-28T07:48:31.949Z,100287.16
2022-12-28T07:51:04.941Z,100284.66
2022-12-28T07:53:32.411Z,100282.13
2022-12-28T07:55:59.689Z,100287.34
2022-12-28T07:58:26.863Z,100281.97
2022-12-28T08:00:54.366Z,100291.72
2022-12-28T08:03:21.879Z,100303.06
2022-12-28T08:05:49.148Z,100302.88
2022-12-28T08:08:16.346Z,100300.78
2022-12-28T08:10:43.792Z,100298.06
2022-12-28T08:13:11.009Z,100308.06
2022-12-28T08:15:38.230Z,100301.25
2022-12-28T08:18:05.813Z,100295.84
2022-12-28T08:20:33.395Z,100287.53
2022-12-28T08:23:03.207Z,100293.75
2022-12-28T08:25:30.636Z,100288.13
2022-12-28T08:27:59.134Z,100286.16
2022-12-28T08:30:26.302Z,100277.16
2022-12-28T08:32:53.755Z,100270.59
2022-12-28T08:35:22.851Z,100276.91
2022-12-28T08:37:50.028Z,100285.81
2022-12-28T08:40:17.495Z,100273.84
2022-12-28T08:42:44.697Z,100284.69
2022-12-28T08:45:12.207Z,100288.37
2022-12-28T08:47:39.638Z,100291.69
2022-12-28T08:50:07.154Z,100300.25
2022-12-28T08:52:34.334Z,100291.31
2022-12-28T08:55:01.769Z,100288.19
2022-12-28T08:57:28.911Z,100292.13
2022-12-28T08:59:56.053Z,100281.72
2022-12-28T09:02:23.593Z,100300.47
2022-12-28T09:04:50.967Z,100294.00
2022-12-28T09:07:18.127Z,100296.56
2022-12-28T09:09:45.637Z,100298.25
2022-12-28T09:12:12.858Z,100284.63
2022-12-28T09:14:40.014Z,100283.12
2022-12-28T09:17:07.454Z,100280.53
2022-12-28T09:19:34.626Z,100274.13
2022-12-28T09:22:01.782Z,100267.09
2022-12-28T09:24:29.300Z,100251.88
2022-12-28T09:26:56.453Z,100249.16
2022-12-28T09:29:23.673Z,100255.56
2022-12-28T09:31:51.123Z,100254.13
2022-12-28T09:37:06.438Z,100239.06
2022-12-28T09:39:33.764Z,100239.63
2022-12-28T09:42:22.108Z,100242.84
2022-12-28T09:44:49.568Z,100243.59
2022-12-28T09:47:21.868Z,100235.19
2022-12-28T09:49:58.400Z,100245.34
2022-12-28T09:52:27.611Z,100237.31
2022-12-28T09:54:55.550Z,100234.53
2022-12-28T09:57:22.705Z,100228.53
2022-12-28T09:59:50.220Z,100222.66
2022-12-28T10:02:19.033Z,100226.13
2022-12-28T10:04:49.661Z,100209.81
2022-12-28T10:07:16.847Z,100199.22
2022-12-28T10:09:44.016Z,100197.78
2022-12-28T10:12:18.123Z,100202.38
2022-12-28T10:14:48.630Z,100200.84
2022-12-28T10:17:16.820Z,100189.66
2022-12-28T10:19:47.328Z,100179.03
2022-12-28T10:22:19.111Z,100181.75
2022-12-28T10:24:46.668Z,100190.44
2022-12-28T10:27:29.770Z,100193.16
2022-12-28T10:29:57.711Z,100196.72
2022-12-28T10:32:24.914Z,100188.88
2022-12-28T10:34:55.077Z,100186.22
2022-12-28T10:37:22.553Z,100190.53
2022-12-28T10:39:50.606Z,100193.94
2022-12-28T10:42:20.072Z,100189.41
2022-12-28T10:44:48.216Z,100187.41
2022-12-28T10:47:25.202Z,100189.13
2022-12-28T10:52:39.938Z,100189.16
2022-12-28T10:55:39.957Z,100192.28
2022-12-28T10:58:32.920Z,100190.78
2022-12-28T11:01:03.643Z,100189.66
2022-12-28T11:03:32.143Z,100190.16
2022-12-28T11:06:22.670Z,100194.16
2022-12-28T11:09:04.303Z,100184.06
2022-12-28T11:11:31.466Z,100184.53
2022-12-28T11:14:00.146Z,100183.63
2022-12-28T11:16:27.395Z,100188.88
2022-12-28T11:18:54.667Z,100171.38
2022-12-28T11:21:22.186Z,100171.03
2022-12-28T11:23:49.662Z,100162.91
2022-12-28T11:26:18.770Z,100166.44
2022-12-28T11:28:46.675Z,100164.84
2022-12-28T11:31:40.816Z,100167.72
2022-12-28T11:34:13.081Z,100159.78
2022-12-28T11:36:40.262Z,100152.53
2022-12-28T11:39:26.822Z,100138.34
2022-12-28T11:42:36.567Z,100125.37
2022-12-28T11:44:42.712Z,100129.38
2022-12-28T11:47:16.150Z,100133.41
2022-12-28T11:49:44.093Z,100127.75
2022-12-28T11:52:17.506Z,100123.25
2022-12-28T11:54:55.263Z,100118.78
2022-12-28T11:57:42.001Z,100119.84
2022-12-28T12:00:24.762Z,100107.97
2022-12-28T12:03:01.004Z,100102.72
2022-12-28T12:05:37.441Z,100098.81
2022-12-28T12:08:17.054Z,100105.69
2022-12-28T12:10:44.848Z,100099.53
2022-12-28T12:13:27.444Z,100097.44
2022-12-28T12:16:04.047Z,100090.59
2022-12-28T12:18:32.829Z,100079.28
2022-12-28T12:21:03.412Z,100072.81
2022-12-28T12:23:41.146Z,100070.84
2022-12-28T12:26:22.814Z,100070.41
2022-12-28T12:28:53.537Z,100067.97
2022-12-28T12:31:37.902Z,100054.47
2022-12-28T12:34:31.369Z,100061.56
2022-12-28T12:36:58.808Z,100061.19
2022-12-28T12:39:45.040Z,100051.53
2022-12-28T12:42:19.137Z,100054.66
2022-12-28T12:44:51.985Z,100050.56
2022-12-28T12:47:42.775Z,100048.44
2022-12-28T12:50:12.989Z,100045.66
2022-12-28T12:52:46.415Z,100045.75
2022-12-28T12:55:22.488Z,100045.97
2022-12-28T12:58:03.405Z,100035.59
2022-12-28T13:00:50.848Z,100032.88
2022-12-28T13:03:27.608Z,100026.06
2022-12-28T13:05:55.217Z,100031.62
2022-12-28T13:08:24.322Z,100017.97
2022-12-28T13:10:51.535Z,100019.03
2022-12-28T13:13:25.152Z,100028.62
2022-12-28T13:15:52.828Z,100019.22
2022-12-28T13:21:12.500Z,100023.22
2022-12-28T13:23:44.228Z,100009.75
2022-12-28T13:26:12.971Z,100000.44
2022-12-28T13:28:44.597Z,99997.56
2022-12-28T13:31:22.341Z,100002.38
2022-12-28T13:33:56.651Z,100002.44
2022-12-28T13:36:24.121Z,99998.66
2022-12-28T13:39:26.748Z,100006.94
2022-12-28T13:41:54.772Z,99997.09
2022-12-28T13:44:54.181Z,99990.47
2022-12-28T13:47:23.340Z,99993.50
2022-12-28T13:50:04.392Z,99983.78
2022-12-28T13:52:36.487Z,99978.13
2022-12-28T13:55:05.964Z,99967.06
2022-12-28T13:57:46.697Z,99960.31
2022-12-28T14:00:18.849Z,99959.03
2022-12-28T14:02:46.453Z,99952.47
2022-12-28T14:05:20.894Z,99959.53
2022-12-28T14:07:48.676Z,99957.00
2022-12-28T14:10:16.057Z,99955.69
2022-12-28T14:12:43.481Z,99954.41
2022-12-28T14:15:11.429Z,99954.87
2022-12-28T14:17:38.625Z,99954.94
2022-12-28T14:20:06.127Z,99961.97
2022-12-28T14:22:37.077Z,99960.72
2022-12-28T14:25:04.249Z,99958.34
2022-12-28T14:27:34.068Z,99965.44
2022-12-28T14:30:04.759Z,99960.31
2022-12-28T14:32:32.320Z,99969.09
2022-12-28T14:35:02.388Z,99960.88
2022-12-28T14:37:39.128Z,99967.53
2022-12-28T14:40:06.952Z,99963.31
2022-12-28T14:42:35.410Z,99972.28
2022-12-28T14:45:21.150Z,99958.66
2022-12-28T14:47:54.024Z,99960.00
2022-12-28T14:50:23.316Z,99964.69
2022-12-28T14:52:51.947Z,99968.84
2022-12-28T14:55:28.374Z,99960.03
2022-12-28T14:57:57.634Z,99965.69
2022-12-28T15:00:26.622Z,99959.38
2022-12-28T15:02:54.270Z,99974.66
2022-12-28T15:05:38.626Z,99963.19
2022-12-28T15:08:06.191Z,99961.97
2022-12-28T15:10:35.592Z,99966.28
2022-12-28T15:13:02.742Z,99956.94
2022-12-28T15:15:30.002Z,99960.06
2022-12-28T15:17:57.471Z,99957.75
2022-12-28T15:20:24.677Z,99962.00
2022-12-28T15:22:51.888Z,99956.69
2022-12-28T15:25:19.400Z,99956.75
2022-12-28T15:27:50.749Z,99962.28
2022-12-28T15:30:21.606Z,99970.09
2022-12-28T15:32:51.795Z,99979.28
2022-12-28T15:35:19.057Z,99972.56
2022-12-28T15:37:46.713Z,99969.94
2022-12-28T15:40:14.315Z,99964.63
2022-12-28T15:42:43.658Z,99965.41
2022-12-28T15:45:10.914Z,99957.78
2022-12-28T15:47:38.400Z,99957.72
2022-12-28T15:50:05.641Z,99962.19
2022-12-28T15:52:33.107Z,99969.03
2022-12-28T15:55:00.607Z,99974.03
2022-12-28T15:57:28.010Z,99967.38
2022-12-28T15:59:55.801Z,99973.88
2022-12-28T16:02:23.405Z,99975.66
2022-12-28T16:04:51.074Z,99976.41
2022-12-28T16:07:19.316Z,99976.84
2022-12-28T16:09:47.165Z,99976.22
2022-12-28T16:12:17.467Z,99964.22
2022-12-28T16:14:46.005Z,99956.91
2022-12-28T16:17:13.313Z,99953.09
2022-12-28T16:19:41.926Z,99944.34
2022-12-28T16:22:09.290Z,99940.72
2022-12-28T16:24:36.555Z,99948.25
2022-12-28T16:27:04.438Z,99957.53
2022-12-28T16:29:31.800Z,99959.22
2022-12-28T16:31:59.676Z,99963.00
2022-12-28T16:34:28.351Z,99963.78
2022-12-28T16:36:58.298Z,99955.00
2022-12-28T16:39:26.293Z,99955.13
2022-12-28T16:41:54.073Z,99952.56
2022-12-28T16:44:22.189Z,99945.72
2022-12-28T16:46:49.569Z,99943.84
2022-12-28T16:49:17.104Z,99940.44
2022-12-28T16:51:45.435Z,99947.22
2022-12-28T16:54:15.750Z,99953.16
2022-12-28T16:56:45.188Z,99951.00
2022-12-28T16:59:13.483Z,99947.31
2022-12-28T17:01:42.055Z,99950.63
2022-12-28T17:04:09.957Z,99953.53
2022-12-28T17:06:37.802Z,99945.19
2022-12-28T17:09:05.348Z,99954.87
2022-12-28T17:11:32.830Z,99952.28
2022-12-28T17:14:00.895Z,99955.75
2022-12-28T17:16:28.209Z,99951.34
2022-12-28T17:18:55.846Z,99958.28
2022-12-28T17:21:23.170Z,99947.97
2022-12-28T17:23:50.384Z,99952.12
2022-12-28T17:26:17.933Z,99946.22
2022-12-28T17:28:45.296Z,99950.72
2022-12-28T17:31:14.383Z,99947.53
2022-12-28T17:33:49.326Z,99945.19
2022-12-28T17:36:16.749Z,99936.47
2022-12-28T17:38:44.203Z,99934.13
2022-12-28T17:41:12.642Z,99933.25
2022-12-28T17:43:39.984Z,99930.31
2022-12-28T17:46:07.593Z,99933.25
2022-12-28T17:48:34.836Z,99926.41
2022-12-28T17:51:10.635Z,99929.31
2022-12-28T17:53:39.159Z,99915.78
2022-12-28T17:56:07.432Z,99914.50
2022-12-28T17:58:34.641Z,99909.06
2022-12-28T18:01:02.461Z,99899.75
2022-12-28T18:03:33.941Z,99894.13
2022-12-28T18:06:01.614Z,99889.03
2022-12-28T18:08:29.201Z,99886.16
2022-12-28T18:10:57.009Z,99888.72
2022-12-28T18:13:24.412Z,99886.41
2022-12-28T18:15:52.241Z,99885.63
2022-12-28T18:18:19.912Z,99884.91
2022-12-28T18:20:55.355Z,99885.50
2022-12-28T18:23:22.955Z,99874.47
2022-12-28T18:25:50.286Z,99875.22
2022-12-28T18:28:18.240Z,99868.56
2022-12-28T18:30:45.854Z,99869.56
2022-12-28T18:33:13.368Z,99868.25
2022-12-28T18:35:40.696Z,99872.19
2022-12-28T18:38:08.520Z,99883.78
2022-12-28T18:40:37.807Z,99879.72
2022-12-28T18:43:05.719Z,99879.87
2022-12-28T18:45:33.285Z,99893.63
2022-12-28T18:48:00.721Z,99895.31
2022-12-28T18:50:30.720Z,99887.00
2022-12-28T18:52:58.287Z,99887.50
2022-12-28T18:55:25.495Z,99891.47
2022-12-28T18:57:52.786Z,99893.38
2022-12-28T19:00:20.299Z,99889.66
2022-12-28T19:02:51.235Z,99890.50
2022-12-28T19:05:18.564Z,99890.03
2022-12-28T19:07:49.527Z,99891.94
2022-12-28T19:10:17.571Z,99895.78
2022-12-28T19:12:44.745Z,99896.25
2022-12-28T19:15:12.920Z,99892.53
2022-12-28T19:17:40.392Z,99889.69
2022-12-28T19:20:08.079Z,99897.59
2022-12-28T19:22:36.149Z,99906.34
2022-12-28T19:25:03.983Z,99904.91
2022-12-28T19:27:31.590Z,99898.31
2022-12-28T19:30:00.122Z,99892.34
2022-12-28T19:32:27.613Z,99895.53
2022-12-28T19:34:55.357Z,99877.97
2022-12-28T19:37:25.928Z,99888.66
2022-12-28T19:39:57.646Z,99874.34
2022-12-28T19:42:25.557Z,99884.34
2022-12-28T19:44:53.985Z,99883.59
2022-12-28T19:47:21.819Z,99882.59
2022-12-28T19:49:51.925Z,99877.09
2022-12-28T19:52:19.456Z,99874.16
2022-12-28T19:54:47.260Z,99871.84
2022-12-28T19:57:14.843Z,99878.59
2022-12-28T19:59:42.260Z,99872.19
2022-12-28T20:02:10.298Z,99871.97
2022-12-28T20:04:39.362Z,99863.37
2022-12-28T20:07:06.953Z,99861.34
2022-12-28T20:09:35.141Z,99861.59
2022-12-28T20:12:03.284Z,99863.13
2022-12-28T20:14:30.556Z,99860.94
2022-12-28T20:16:59.420Z,99860.50
2022-12-28T20:19:27.079Z,99863.56
2022-12-28T20:21:54.978Z,99866.16
2022-12-28T20:24:22.456Z,99861.72
2022-12-28T20:26:51.491Z,99854.97
2022-12-28T20:29:20.929Z,99844.38
2022-12-28T20:31:50.047Z,99840.66
2022-12-28T20:34:18.025Z,99840.47
2022-12-28T20:36:46.558Z,99846.75
2022-12-28T20:39:14.723Z,99845.94
2022-12-28T20:42:01.534Z,99855.87
2022-12-28T20:44:32.411Z,99849.41
2022-12-28T20:47:01.092Z,99855.25
2022-12-28T20:49:46.674Z,99847.91
2022-12-28T20:52:14.242Z,99846.28
2022-12-28T20:54:41.927Z,99848.06
2022-12-28T20:57:09.189Z,99844.50
2022-12-28T20:59:36.879Z,99847.75
2022-12-28T21:02:04.458Z,99844.66
2022-12-28T21:04:31.792Z,99840.22
2022-12-28T21:07:00.020Z,99839.81
2022-12-28T21:09:28.777Z,99838.75
2022-12-28T21:11:56.345Z,99834.34
2022-12-28T21:14:23.848Z,99835.78
2022-12-28T21:16:51.307Z,99835.44
2022-12-28T21:19:18.781Z,99834.28
2022-12-28T21:21:48.397Z,99834.72
2022-12-28T21:24:15.831Z,99838.09
2022-12-28T21:26:43.100Z,99836.66
2022-12-28T21:29:10.913Z,99839.31
2022-12-28T21:31:38.301Z,99836.94
2022-12-28T21:34:06.639Z,99838.09
2022-12-28T21:36:55.744Z,99837.22
2022-12-28T21:39:24.493Z,99835.09
2022-12-28T21:41:53.174Z,99825.25
2022-12-28T21:44:21.548Z,99822.16
2022-12-28T21:47:02.682Z,99827.34
2022-12-28T21:49:58.904Z,99825.31
2022-12-28T21:52:32.360Z,99817.47
2022-12-28T21:55:25.275Z,99817.03
2022-12-28T21:57:54.171Z,99816.91
2022-12-28T22:00:40.323Z,99806.12
2022-12-28T22:03:35.603Z,99796.38
2022-12-28T22:06:02.779Z,99795.69
2022-12-28T22:08:50.319Z,99802.09
2022-12-28T22:11:36.605Z,99805.19
2022-12-28T22:14:04.427Z,99810.44
2022-12-28T22:16:32.952Z,99814.09
2022-12-28T22:19:02.705Z,99810.25
2022-12-28T22:21:31.876Z,99795.84
2022-12-28T22:23:59.140Z,99798.66
2022-12-28T22:26:26.320Z,99795.37
2022-12-28T22:28:53.774Z,99793.47
2022-12-28T22:31:21.003Z,99781.38
2022-12-28T22:33:48.207Z,99782.03
2022-12-28T22:36:16.930Z,99780.22
2022-12-28T22:38:44.290Z,99771.25
2022-12-28T22:41:11.520Z,99769.47
2022-12-28T22:43:42.001Z,99779.37
2022-12-28T22:46:10.313Z,99762.97
2022-12-28T22:48:37.792Z,99758.28
2022-12-28T22:51:06.010Z,99755.59
2022-12-28T22:53:33.900Z,99751.84
2022-12-28T22:56:01.796Z,99745.03
2022-12-28T22:58:29.410Z,99752.59
2022-12-28T23:01:06.466Z,99753.97
2022-12-28T23:03:34.432Z,99747.16
2022-12-28T23:06:01.703Z,99743.78
2022-12-28T23:08:28.868Z,99749.34
2022-12-28T23:10:57.235Z,99738.75
2022-12-28T23:13:24.501Z,99733.25
2022-12-28T23:15:55.159Z,99737.41
2022-12-28T23:18:41.668Z,99727.69
2022-12-28T23:21:38.566Z,99721.56
2022-12-28T23:24:24.732Z,99714.09
2022-12-28T23:27:10.825Z,99717.75
2022-12-28T23:29:38.291Z,99716.06
2022-12-28T23:32:05.439Z,99721.34
2022-12-28T23:34:32.637Z,99721.25
2022-12-28T23:37:00.109Z,99716.00
2022-12-28T23:39:27.332Z,99707.62
2022-12-28T23:41:54.925Z,99709.78
2022-12-28T23:44:23.213Z,99705.34
2022-12-28T23:46:55.223Z,99703.25
2022-12-28T23:49:25.947Z,99711.09
2022-12-28T23:51:53.128Z,99695.75
2022-12-28T23:54:20.452Z,99699.13
2022-12-28T23:56:48.894Z,99697.28
2022-12-28T23:59:16.077Z,99702.28
